Time;durP1;ratioP1;P1;durP2;ratioP2;P2;SDS_P1;SDS_P2;PMS_P1;PMS_P2;Temp;Humidity;BMP_temperature;BMP_pressure;BME280_temperature;BME280_humidity;BME280_pressure;Samples;Min_cycle;Max_cycle;Signal;HPM_P1;HPM_P2
2022/09/22 00:01:45;;;;;;;18.08;12.77;;;;;;;11.41;72.83;102523.38;5027469;28;20044;-71
2022/09/22 00:04:12;;;;;;;15.25;12.93;;;;;;;11.48;72.93;102528.91;5026930;28;20045;-71
2022/09/22 00:06:46;;;;;;;13.45;12.02;;;;;;;11.53;73.13;102534.31;5025068;28;20602;-72
2022/09/22 00:09:13;;;;;;;13.88;11.48;;;;;;;11.41;72.94;102523.38;5027342;28;20075;-71
2022/09/22 00:11:44;;;;;;;14.43;12.15;;;;;;;11.43;72.90;102521.75;5023576;28;20030;-71
2022/09/22 00:14:09;;;;;;;15.25;11.93;;;;;;;11.40;72.72;102527.59;5024991;28;20048;-71
2022/09/22 00:16:41;;;;;;;14.15;11.70;;;;;;;11.37;72.79;102526.59;5024157;28;20404;-72
2022/09/22 00:19:08;;;;;;;14.05;12.00;;;;;;;11.32;72.61;102520.31;5027159;28;20025;-71
2022/09/22 00:21:34;;;;;;;15.20;12.13;;;;;;;11.28;72.72;102516.69;5025535;28;20041;-71
2022/09/22 00:24:01;;;;;;;13.77;12.25;;;;;;;11.26;72.55;102524.34;5025326;28;20388;-71
2022/09/22 00:26:27;;;;;;;17.30;13.25;;;;;;;11.18;72.88;102515.34;5025721;28;20369;-71
2022/09/22 00:28:53;;;;;;;14.15;12.75;;;;;;;11.17;72.99;102518.72;5025643;28;20063;-71
2022/09/22 00:31:23;;;;;;;16.48;13.63;;;;;;;11.20;72.79;102518.88;5027272;28;20030;-71
2022/09/22 00:33:51;;;;;;;18.60;13.82;;;;;;;11.18;72.88;102520.50;5027469;28;20033;-71
2022/09/22 00:36:17;;;;;;;20.35;14.90;;;;;;;11.13;72.65;102513.31;5027006;28;20122;-72
2022/09/22 00:38:44;;;;;;;18.00;14.88;;;;;;;11.15;72.93;102520.31;5025498;28;20029;-72
2022/09/22 00:41:27;;;;;;;17.73;14.35;;;;;;;11.19;72.91;102521.38;5027804;28;20753;-72
2022/09/22 00:44:14;;;;;;;16.67;14.80;;;;;;;11.26;72.36;102521.75;5025945;28;20034;-72
2022/09/22 00:46:43;;;;;;;16.63;14.25;;;;;;;11.17;72.77;102516.16;5024274;28;20100;-72
2022/09/22 00:49:12;;;;;;;17.58;15.38;;;;;;;11.12;72.93;102515.03;5027705;28;20511;-72
2022/09/22 00:51:41;;;;;;;18.23;15.30;;;;;;;11.17;72.82;102520.41;5026275;28;20025;-73
2022/09/22 00:54:11;;;;;;;17.58;14.93;;;;;;;11.09;72.61;102520.00;5023598;28;20040;-72
2022/09/22 00:56:50;;;;;;;16.25;14.65;;;;;;;11.06;72.91;102516.41;5025019;28;20037;-72
2022/09/22 00:59:18;;;;;;;17.92;15.95;;;;;;;11.06;72.93;102503.53;5025521;28;20033;-72
2022/09/22 01:01:44;;;;;;;21.90;15.55;;;;;;;11.01;73.21;102503.28;5027345;28;20088;-72
2022/09/22 01:04:10;;;;;;;17.40;15.57;;;;;;;11.01;73.28;102500.69;5030797;28;20030;-72
2022/09/22 01:06:38;;;;;;;17.67;15.40;;;;;;;10.98;73.04;102490.22;5029844;28;20051;-72
2022/09/22 01:09:04;;;;;;;19.65;15.48;;;;;;;10.98;72.97;102490.22;5029261;28;20033;-72
2022/09/22 01:11:31;;;;;;;19.05;15.07;;;;;;;10.91;73.25;102489.03;5011617;28;20029;-72
2022/09/22 01:14:14;;;;;;;16.58;14.88;;;;;;;11.00;72.98;102488.66;5030276;28;20511;-72
2022/09/22 01:17:03;;;;;;;17.70;15.40;;;;;;;11.05;72.82;102488.88;5026533;28;20028;-72
2022/09/22 01:19:28;;;;;;;15.00;13.52;;;;;;;10.92;72.91;102484.75;5029592;28;20027;-71
2022/09/22 01:22:06;;;;;;;15.77;14.07;;;;;;;10.95;73.00;102483.25;5029819;28;20029;-72
2022/09/22 01:24:58;;;;;;;19.38;14.15;;;;;;;10.96;72.95;102481.56;5026727;28;20029;-71
2022/09/22 01:27:35;;;;;;;17.15;13.55;;;;;;;10.82;73.24;102482.53;5029205;28;20024;-72
2022/09/22 01:30:06;;;;;;;16.27;13.27;;;;;;;10.79;73.04;102479.78;5012015;28;20029;-72
2022/09/22 01:32:41;;;;;;;14.55;13.05;;;;;;;10.71;73.57;102475.13;5029506;28;20014;-72
2022/09/22 01:35:30;;;;;;;14.82;13.10;;;;;;;10.70;73.24;102482.75;5030459;28;20022;-71
2022/09/22 01:38:07;;;;;;;16.53;13.37;;;;;;;10.71;73.50;102475.13;5028364;28;20036;-72
2022/09/22 01:40:35;;;;;;;14.23;12.75;;;;;;;10.70;73.25;102482.75;5028207;28;20033;-72
2022/09/22 01:43:10;;;;;;;17.80;13.37;;;;;;;10.72;73.48;102483.72;5024510;28;20472;-71
2022/09/22 01:45:40;;;;;;;16.05;13.70;;;;;;;10.69;73.62;102471.59;5029711;28;20060;-72
2022/09/22 01:48:32;;;;;;;16.92;13.95;;;;;;;10.81;73.15;102473.94;5028490;28;20119;-72
2022/09/22 01:51:09;;;;;;;16.27;13.77;;;;;;;10.73;73.33;102468.34;5009613;28;20033;-72
2022/09/22 01:53:42;;;;;;;16.58;14.10;;;;;;;10.64;73.58;102469.56;5028809;28;20148;-72
2022/09/22 01:56:12;;;;;;;18.27;14.27;;;;;;;10.58;73.47;102467.56;5029776;28;20112;-72
2022/09/22 01:58:59;;;;;;;18.42;14.10;;;;;;;10.65;72.85;102459.34;5027132;28;20029;-72
2022/09/22 02:01:34;;;;;;;15.35;13.55;;;;;;;10.55;73.49;102457.09;5022141;28;20056;-72
2022/09/22 02:04:17;;;;;;;16.27;13.88;;;;;;;10.53;73.46;102453.56;5025897;28;20025;-72
2022/09/22 02:06:47;;;;;;;17.00;12.85;;;;;;;10.43;73.64;102456.44;5025397;28;20053;-72
2022/09/22 02:09:17;;;;;;;16.55;13.40;;;;;;;10.38;73.86;102450.19;5029015;28;20055;-72
2022/09/22 02:11:43;;;;;;;15.80;13.85;;;;;;;10.33;73.64;102454.19;5028908;28;20680;-72
2022/09/22 02:14:09;;;;;;;15.55;13.35;;;;;;;10.36;74.09;102459.47;5029719;28;20038;-72
2022/09/22 02:16:35;;;;;;;15.63;13.38;;;;;;;10.29;73.88;102447.97;5028613;28;20044;-72
2022/09/22 02:19:17;;;;;;;15.38;13.50;;;;;;;10.36;73.92;102444.94;5012027;28;20021;-72
2022/09/22 02:21:45;;;;;;;17.38;13.00;;;;;;;10.30;74.36;102446.28;5010496;28;20037;-72
2022/09/22 02:24:36;;;;;;;16.00;13.60;;;;;;;10.39;74.38;102439.97;5027224;28;20419;-72
2022/09/22 02:27:06;;;;;;;14.00;12.57;;;;;;;10.37;74.15;102440.66;5027629;28;20034;-72
2022/09/22 02:29:39;;;;;;;13.95;12.45;;;;;;;10.35;73.79;102429.44;5026508;28;20078;-72
2022/09/22 02:32:09;;;;;;;15.57;12.75;;;;;;;10.26;73.98;102436.66;5029371;28;20095;-72
2022/09/22 02:34:34;;;;;;;16.23;13.38;;;;;;;10.28;74.18;102435.06;5028921;28;20018;-72
2022/09/22 02:37:12;;;;;;;14.93;13.23;;;;;;;10.26;74.35;102432.41;5028560;28;20135;-72
2022/09/22 02:40:22;;;;;;;15.00;12.75;;;;;;;10.31;73.81;102435.19;5027906;28;20053;-72
2022/09/22 02:43:03;;;;;;;13.77;12.38;;;;;;;10.27;73.58;102429.03;5023151;28;20037;-72
2022/09/22 02:45:50;;;;;;;19.60;12.15;;;;;;;10.29;73.70;102429.09;5028875;28;20029;-72
2022/09/22 02:48:22;;;;;;;14.80;12.02;;;;;;;10.24;73.83;102418.56;5029604;28;20032;-72
2022/09/22 02:50:47;;;;;;;14.18;11.68;;;;;;;10.23;73.63;102421.03;5024164;28;20057;-72
2022/09/22 02:53:16;;;;;;;12.77;11.48;;;;;;;10.23;73.70;102424.50;5022778;28;20049;-72
2022/09/22 02:55:42;;;;;;;13.18;11.88;;;;;;;10.13;73.95;102412.81;5009633;28;20028;-72
2022/09/22 02:58:08;;;;;;;13.00;11.07;;;;;;;10.11;73.91;102418.66;5010971;28;20037;-72
2022/09/22 03:00:34;;;;;;;13.82;11.93;;;;;;;10.13;73.94;102420.53;5028522;28;20068;-72
2022/09/22 03:03:00;;;;;;;12.60;11.10;;;;;;;10.09;73.90;102412.56;5028038;28;20128;-72
2022/09/22 03:05:25;;;;;;;15.18;11.15;;;;;;;10.07;73.63;102415.06;5017330;28;20041;-72
2022/09/22 03:07:51;;;;;;;12.25;10.95;;;;;;;10.06;73.94;102415.84;5018891;28;20393;-72
2022/09/22 03:10:16;;;;;;;12.15;10.93;;;;;;;10.04;73.98;102420.03;5003599;28;20026;-72
2022/09/22 03:12:42;;;;;;;16.20;11.85;;;;;;;10.00;73.95;102412.06;5028139;28;20042;-72
2022/09/22 03:15:12;;;;;;;14.32;12.07;;;;;;;10.03;74.00;102415.69;5024956;28;20030;-72
2022/09/22 03:17:38;;;;;;;13.38;11.40;;;;;;;9.98;73.97;102409.41;5022092;28;20033;-72
2022/09/22 03:20:05;;;;;;;15.02;11.68;;;;;;;9.93;74.09;102406.56;5028628;28;20017;-72
2022/09/22 03:22:31;;;;;;;12.88;11.50;;;;;;;9.93;73.70;102409.16;5029137;28;20141;-72
2022/09/22 03:24:56;;;;;;;12.57;11.27;;;;;;;9.88;73.82;102408.00;5010029;28;20132;-72
2022/09/22 03:27:21;;;;;;;14.90;12.55;;;;;;;9.87;74.19;102407.91;5029131;28;20025;-72
2022/09/22 03:29:47;;;;;;;15.18;12.10;;;;;;;9.83;74.84;102406.00;5022806;28;20076;-72
2022/09/22 03:32:12;;;;;;;13.00;11.70;;;;;;;9.86;74.10;102398.44;5024089;28;20434;-72
2022/09/22 03:34:37;;;;;;;14.68;11.25;;;;;;;9.87;74.31;102410.50;5024149;28;20110;-72
2022/09/22 03:37:03;;;;;;;13.30;11.90;;;;;;;9.87;74.03;102405.34;5022351;28;20029;-72
2022/09/22 03:39:28;;;;;;;14.52;11.80;;;;;;;9.78;74.19;102400.59;5023988;28;20365;-72
2022/09/22 03:41:54;;;;;;;13.52;10.90;;;;;;;9.73;74.18;102396.88;5023262;28;20039;-72
2022/09/22 03:44:19;;;;;;;16.25;12.00;;;;;;;9.69;74.55;102389.78;5005076;28;20366;-72
2022/09/22 03:46:44;;;;;;;15.55;11.60;;;;;;;9.71;74.08;102400.16;5022776;28;20596;-72
2022/09/22 03:49:10;;;;;;;14.05;11.70;;;;;;;9.70;74.28;102400.97;5026762;28;20040;-72
2022/09/22 03:51:35;;;;;;;15.73;12.35;;;;;;;9.71;74.51;102401.06;5024867;28;20033;-72
2022/09/22 03:54:01;;;;;;;15.00;12.20;;;;;;;9.66;74.99;102408.50;5026898;28;20123;-72
2022/09/22 03:56:26;;;;;;;13.50;12.02;;;;;;;9.64;75.41;102392.09;5025782;28;20029;-73
2022/09/22 03:58:52;;;;;;;13.27;11.93;;;;;;;9.64;75.00;102402.38;5004733;28;20380;-73
2022/09/22 04:01:17;;;;;;;13.73;11.73;;;;;;;9.65;75.01;102396.47;5027472;28;20037;-72
2022/09/22 04:03:42;;;;;;;15.20;11.80;;;;;;;9.64;75.02;102392.09;5026917;28;20048;-72
2022/09/22 04:06:08;;;;;;;13.95;12.23;;;;;;;9.64;74.96;102399.81;5025065;28;20025;-72
2022/09/22 04:08:34;;;;;;;13.70;11.55;;;;;;;9.59;74.72;102385.84;5007544;28;20045;-72
2022/09/22 04:11:00;;;;;;;13.27;11.90;;;;;;;9.61;74.75;102397.09;5006454;28;20488;-72
2022/09/22 04:13:26;;;;;;;13.77;11.98;;;;;;;9.56;74.73;102388.22;5026356;28;20068;-72
2022/09/22 04:15:52;;;;;;;14.02;11.57;;;;;;;9.51;75.19;102388.75;5025273;28;20120;-73
2022/09/22 04:18:17;;;;;;;13.18;11.38;;;;;;;9.46;75.16;102382.47;5026236;28;20116;-72
2022/09/22 04:20:43;;;;;;;14.65;11.70;;;;;;;9.43;75.13;102383.22;5026115;28;20063;-72
2022/09/22 04:23:13;;;;;;;13.27;11.80;;;;;;;9.48;75.31;102391.19;5027257;28;20527;-72
2022/09/22 04:25:38;;;;;;;15.80;12.10;;;;;;;9.43;75.35;102384.88;5026389;28;20029;-73
2022/09/22 04:28:05;;;;;;;15.50;12.10;;;;;;;9.38;75.21;102382.94;5026389;28;20037;-73
2022/09/22 04:30:31;;;;;;;15.23;11.80;;;;;;;9.42;75.73;102375.44;5026921;28;20037;-73
2022/09/22 04:32:58;;;;;;;17.50;11.70;;;;;;;9.46;75.36;102375.66;5027344;28;20040;-72
2022/09/22 04:35:25;;;;;;;16.00;11.90;;;;;;;9.46;75.55;102378.22;5027241;28;20029;-72
2022/09/22 04:37:52;;;;;;;14.15;11.80;;;;;;;9.39;75.20;102370.97;5030208;28;20038;-72
2022/09/22 04:40:17;;;;;;;14.45;11.63;;;;;;;9.46;75.26;102375.66;5030336;28;20057;-72
2022/09/22 04:42:43;;;;;;;13.10;11.65;;;;;;;9.39;75.60;102379.56;5030781;28;20115;-72
2022/09/22 04:45:09;;;;;;;13.60;11.70;;;;;;;9.36;75.29;102379.41;5010408;28;20032;-73
2022/09/22 04:47:34;;;;;;;15.05;12.07;;;;;;;9.33;75.16;102368.94;5013771;28;20037;-73
2022/09/22 04:50:00;;;;;;;14.43;11.43;;;;;;;9.30;75.27;102373.03;5028755;28;20029;-73
2022/09/22 04:52:25;;;;;;;14.48;11.48;;;;;;;9.34;75.55;102380.09;5031084;28;20034;-72
2022/09/22 04:54:51;;;;;;;14.23;11.63;;;;;;;9.33;75.81;102378.34;4996928;28;20092;-72
2022/09/22 04:57:17;;;;;;;15.07;12.20;;;;;;;9.30;75.69;102375.59;5030679;28;20477;-72
2022/09/22 04:59:42;;;;;;;13.85;11.25;;;;;;;9.29;75.47;102373.84;5027051;28;20025;-72
2022/09/22 05:02:07;;;;;;;15.55;11.52;;;;;;;9.26;75.45;102371.09;5027030;28;20032;-72
2022/09/22 05:04:33;;;;;;;15.05;11.88;;;;;;;9.27;75.81;102371.16;5030781;28;20064;-72
2022/09/22 05:06:58;;;;;;;13.68;11.50;;;;;;;9.29;75.42;102378.97;5029938;28;20025;-72
2022/09/22 05:09:24;;;;;;;15.00;11.85;;;;;;;9.30;75.86;102380.75;5028677;28;20135;-73
2022/09/22 05:11:49;;;;;;;15.32;11.80;;;;;;;9.32;75.62;102386.84;5030270;28;20029;-73
2022/09/22 05:14:15;;;;;;;15.63;12.07;;;;;;;9.24;75.62;102382.97;5030419;28;20060;-72
2022/09/22 05:16:43;;;;;;;21.67;11.93;;;;;;;9.21;75.77;102382.75;5030013;28;20088;-72
2022/09/22 05:19:09;;;;;;;12.68;11.13;;;;;;;9.17;75.97;102386.84;5027292;28;20112;-72
2022/09/22 05:21:35;;;;;;;13.90;11.25;;;;;;;9.13;75.76;102380.66;5028959;28;20112;-72
2022/09/22 05:24:01;;;;;;;16.33;11.73;;;;;;;9.18;76.09;102380.91;5029879;28;20028;-73
2022/09/22 05:26:27;;;;;;;12.95;11.43;;;;;;;9.10;76.39;102377.91;5012853;28;20764;-73
2022/09/22 05:28:52;;;;;;;18.48;11.60;;;;;;;9.16;76.06;102386.75;5029129;28;20029;-72
2022/09/22 05:31:18;;;;;;;14.18;11.80;;;;;;;9.04;76.63;102386.91;5029436;28;20378;-72
2022/09/22 05:33:44;;;;;;;16.70;12.40;;;;;;;9.06;76.39;102390.47;5029060;28;20017;-72
2022/09/22 05:36:09;;;;;;;20.02;12.88;;;;;;;9.06;76.64;102388.78;5025475;28;20091;-72
2022/09/22 05:38:35;;;;;;;17.92;12.60;;;;;;;9.08;76.57;102379.50;5023231;28;20029;-73
2022/09/22 05:41:02;;;;;;;16.13;11.70;;;;;;;9.08;76.77;102389.75;5008727;28;20112;-73
2022/09/22 05:43:28;;;;;;;13.65;12.25;;;;;;;9.04;76.73;102385.25;5030222;28;20029;-73
2022/09/22 05:45:53;;;;;;;17.13;12.73;;;;;;;9.06;76.75;102383.66;5028455;28;20116;-72
2022/09/22 05:48:18;;;;;;;16.83;12.60;;;;;;;9.07;76.98;102385.41;5028359;28;20043;-73
2022/09/22 05:50:44;;;;;;;15.48;12.15;;;;;;;9.11;76.97;102394.19;5012617;28;20116;-72
2022/09/22 05:53:09;;;;;;;17.92;12.00;;;;;;;9.15;77.18;102393.56;5028545;28;20025;-72
2022/09/22 05:55:37;;;;;;;14.95;11.77;;;;;;;9.18;77.05;102392.88;5027395;28;20032;-72
2022/09/22 05:58:03;;;;;;;17.17;12.30;;;;;;;9.23;77.14;102396.59;5027165;28;20404;-72
2022/09/22 06:00:29;;;;;;;15.05;12.32;;;;;;;9.20;77.05;102397.28;5027674;28;20060;-72
2022/09/22 06:02:55;;;;;;;15.50;11.80;;;;;;;9.24;77.30;102395.78;5029523;28;20048;-73
2022/09/22 06:05:20;;;;;;;15.18;12.30;;;;;;;9.21;77.18;102396.47;5029337;28;20476;-72
2022/09/22 06:07:47;;;;;;;16.48;13.00;;;;;;;9.23;77.69;102401.72;5029250;28;20087;-72
2022/09/22 06:10:13;;;;;;;19.23;13.15;;;;;;;9.22;78.29;102397.34;5027194;28;20022;-72
2022/09/22 06:12:38;;;;;;;18.63;13.00;;;;;;;9.27;78.29;102399.41;5028922;28;20028;-72
2022/09/22 06:15:05;;;;;;;18.10;12.43;;;;;;;9.26;78.80;102400.19;5029477;28;20039;-72
2022/09/22 06:17:31;;;;;;;19.98;12.95;;;;;;;9.34;78.46;102393.84;5029389;28;20049;-72
2022/09/22 06:19:59;;;;;;;20.67;12.45;;;;;;;9.38;78.73;102400.91;5028080;28;20092;-73
2022/09/22 06:22:25;;;;;;;18.65;12.68;;;;;;;9.38;79.08;102402.59;5028741;28;20112;-72
2022/09/22 06:24:50;;;;;;;17.55;12.75;;;;;;;9.44;78.76;102397.81;5014329;28;20108;-72
2022/09/22 06:27:16;;;;;;;17.58;12.95;;;;;;;9.46;79.08;102400.44;5028895;28;20414;-73
2022/09/22 06:29:41;;;;;;;18.90;13.13;;;;;;;9.48;79.13;102399.75;5028693;28;20024;-73
2022/09/22 06:32:07;;;;;;;20.35;13.40;;;;;;;9.52;79.41;102390.53;5027046;28;20065;-73
2022/09/22 06:34:34;;;;;;;16.92;12.45;;;;;;;9.57;79.18;102392.56;5028350;28;20017;-72
2022/09/22 06:37:00;;;;;;;16.60;13.00;;;;;;;9.63;79.25;102395.47;5027932;28;20033;-73
2022/09/22 06:39:25;;;;;;;16.27;12.70;;;;;;;9.64;79.25;102389.53;5010179;28;20481;-73
2022/09/22 06:41:51;;;;;;;17.15;13.25;;;;;;;9.67;79.50;102393.97;5025062;28;20036;-73
2022/09/22 06:44:16;;;;;;;16.75;12.80;;;;;;;9.64;79.34;102384.41;5007790;28;20080;-73
2022/09/22 06:46:42;;;;;;;15.02;13.15;;;;;;;9.71;79.61;102392.44;5009339;28;20083;-73
2022/09/22 06:49:07;;;;;;;15.55;12.95;;;;;;;9.72;79.54;102395.13;5027698;28;20331;-72
2022/09/22 06:51:34;;;;;;;19.05;13.32;;;;;;;9.77;79.94;102403.06;5025036;28;20037;-73
2022/09/22 06:54:03;;;;;;;21.17;13.98;;;;;;;9.81;80.05;102395.63;5023212;28;20033;-73
2022/09/22 06:56:33;;;;;;;20.58;13.60;;;;;;;9.85;80.39;102394.13;5021104;28;20055;-73
2022/09/22 06:58:59;;;;;;;17.77;14.02;;;;;;;9.88;80.25;102397.72;5024719;28;20033;-73
2022/09/22 07:01:27;;;;;;;20.67;15.00;;;;;;;9.94;80.06;102392.03;5025716;28;20029;-72
2022/09/22 07:03:53;;;;;;;17.38;14.68;;;;;;;10.03;79.98;102392.56;5023314;28;20041;-72
2022/09/22 07:06:18;;;;;;;21.80;14.63;;;;;;;10.12;79.95;102390.47;5024712;28;20044;-72
2022/09/22 07:08:47;;;;;;;18.08;14.65;;;;;;;10.24;79.81;102389.41;5023102;28;20029;-73
2022/09/22 07:11:14;;;;;;;18.98;15.23;;;;;;;10.37;79.70;102392.69;5019953;28;20042;-73
2022/09/22 07:13:41;;;;;;;19.92;15.05;;;;;;;10.44;78.98;102381.97;5022296;28;20053;-73
2022/09/22 07:16:07;;;;;;;21.50;15.00;;;;;;;10.55;78.87;102390.22;5020808;28;20126;-73
2022/09/22 07:18:34;;;;;;;17.38;14.32;;;;;;;10.67;78.99;102383.13;5018506;28;20543;-73
2022/09/22 07:21:14;;;;;;;21.30;15.07;;;;;;;10.84;78.60;102386.59;5020062;28;20034;-73
2022/09/22 07:23:40;;;;;;;17.75;14.65;;;;;;;10.98;78.45;102390.75;5021199;28;20032;-72
2022/09/22 07:26:10;;;;;;;19.27;14.55;;;;;;;11.11;77.95;102384.53;5025923;28;20122;-72
2022/09/22 07:28:35;;;;;;;;;;;;;;;11.35;77.49;102379.72;5025582;28;20087;-72
2022/09/22 07:31:06;;;;;;;20.50;13.82;;;;;;;11.37;77.76;102378.09;5024532;28;19990;-73
2022/09/22 07:33:33;;;;;;;21.02;13.90;;;;;;;11.48;77.63;102378.63;5023812;28;20040;-72
2022/09/22 07:36:10;;;;;;;19.33;14.57;;;;;;;11.58;77.51;102380.81;5023765;28;20040;-72
2022/09/22 07:38:36;;;;;;;15.43;13.32;;;;;;;11.70;76.82;102383.97;5021811;28;20484;-72
2022/09/22 07:41:05;;;;;;;20.30;13.65;;;;;;;11.76;76.71;102373.94;5019680;28;20137;-72
2022/09/22 07:43:31;;;;;;;18.20;13.02;;;;;;;11.93;76.11;102373.91;5026081;28;20403;-72
2022/09/22 07:45:57;;;;;;;15.98;12.88;;;;;;;12.03;75.06;102368.38;5026883;28;20049;-72
2022/09/22 07:48:36;;;;;;;18.92;12.95;;;;;;;12.18;76.73;102365.59;5026854;28;20037;-72
2022/09/22 07:51:08;;;;;;;18.27;12.65;;;;;;;12.40;75.09;102375.19;5025194;28;20030;-72
2022/09/22 07:53:35;;;;;;;17.52;12.40;;;;;;;12.47;73.75;102374.66;5017788;28;20075;-71
2022/09/22 07:56:05;;;;;;;15.93;12.10;;;;;;;12.58;74.07;102379.47;5023641;28;21506;-69
2022/09/22 07:58:32;;;;;;;21.30;12.73;;;;;;;12.67;73.71;102368.66;5022231;28;20080;-70
2022/09/22 08:01:03;;;;;;;18.85;12.38;;;;;;;12.80;73.42;102372.63;5023358;28;20095;-69
2022/09/22 08:03:29;;;;;;;27.80;12.27;;;;;;;12.85;73.66;102366.84;5020688;28;20025;-69
2022/09/22 08:06:01;;;;;;;24.33;12.90;;;;;;;13.01;73.76;102368.41;5005701;28;20400;-71
2022/09/22 08:08:29;;;;;;;16.38;12.10;;;;;;;13.18;73.34;102375.97;5026237;28;20113;-72
2022/09/22 08:11:01;;;;;;;15.80;11.25;;;;;;;13.36;72.40;102371.59;5024121;28;20034;-69
2022/09/22 08:13:27;;;;;;;18.42;11.98;;;;;;;13.55;72.41;102357.72;5006014;28;20060;-68
2022/09/22 08:15:55;;;;;;;17.52;12.23;;;;;;;13.72;72.06;102366.13;5024127;28;20034;-68
2022/09/22 08:18:20;;;;;;;13.93;11.32;;;;;;;13.87;70.26;102366.72;5023868;28;20048;-68
2022/09/22 08:20:45;;;;;;;18.45;11.43;;;;;;;14.01;71.47;102356.88;5003421;28;20034;-68
2022/09/22 08:23:11;;;;;;;14.63;11.02;;;;;;;14.14;70.16;102354.84;5024907;28;20033;-67
2022/09/22 08:25:36;;;;;;;13.90;10.32;;;;;;;14.26;69.66;102351.81;5026395;28;20076;-67
2022/09/22 08:28:02;;;;;;;14.02;10.95;;;;;;;14.31;69.10;102352.84;5008713;28;20086;-68
2022/09/22 08:30:27;;;;;;;14.98;10.85;;;;;;;14.43;69.29;102352.41;5021111;28;20685;-68
2022/09/22 08:32:52;;;;;;;14.63;11.73;;;;;;;14.46;69.34;102356.03;5024382;28;20033;-67
2022/09/22 08:35:18;;;;;;;17.60;10.95;;;;;;;14.51;69.40;102351.03;5022518;28;20036;-67
2022/09/22 08:37:44;;;;;;;14.25;11.00;;;;;;;14.49;68.94;102347.50;5024166;28;20548;-67
2022/09/22 08:40:22;;;;;;;13.48;10.50;;;;;;;14.62;69.67;102346.22;5003054;28;20048;-67
2022/09/22 08:42:49;;;;;;;16.30;10.45;;;;;;;14.66;68.47;102348.09;5024244;28;20083;-67
2022/09/22 08:45:28;;;;;;;11.32;9.60;;;;;;;14.68;67.91;102351.59;5025310;28;20080;-67
2022/09/22 08:53:36;;;;;;;13.02;10.30;;;;;;;14.96;67.22;102349.13;5026168;28;20028;-66
2022/09/22 08:56:12;;;;;;;18.95;10.10;;;;;;;15.01;65.95;102347.59;5024718;28;20416;-66
2022/09/22 08:59:00;;;;;;;10.93;9.75;;;;;;;15.12;68.54;102357.44;5024909;28;20037;-66
2022/09/22 09:01:50;;;;;;;15.07;10.52;;;;;;;15.18;68.41;102355.06;5026616;28;20025;-66
2022/09/22 09:04:24;;;;;;;13.82;10.50;;;;;;;15.24;67.01;102352.66;5026223;28;20112;-66
2022/09/22 09:07:23;;;;;;;16.52;11.10;;;;;;;15.27;67.44;102351.03;5022074;28;20034;-65
2022/09/22 09:09:51;;;;;;;14.57;11.18;;;;;;;15.31;67.20;102352.03;4969402;28;20129;-65
2022/09/22 09:12:45;;;;;;;14.25;10.55;;;;;;;15.46;66.80;102362.88;5025388;28;20115;-65
2022/09/22 09:15:32;;;;;;;13.50;11.13;;;;;;;15.50;68.44;102361.25;4986113;28;20041;-65
2022/09/22 09:18:02;;;;;;;11.27;9.63;;;;;;;15.56;67.07;102358.88;4984900;28;20034;-65
2022/09/22 09:20:34;;;;;;;15.82;9.98;;;;;;;15.61;67.53;102351.22;4985994;28;20172;-65
2022/09/22 09:23:08;;;;;;;13.02;10.48;;;;;;;15.69;67.67;102360.16;4987297;28;20034;-65
2022/09/22 09:25:40;;;;;;;14.43;10.55;;;;;;;15.75;67.34;102352.56;4985807;28;20121;-65
2022/09/22 09:28:34;;;;;;;15.45;10.10;;;;;;;15.82;67.02;102350.19;4984243;28;20509;-65
2022/09/22 09:31:26;;;;;;;12.40;10.00;;;;;;;15.91;66.80;102348.72;4985143;28;20393;-66
2022/09/22 09:33:57;;;;;;;10.60;9.05;;;;;;;15.95;65.92;102348.84;4983527;28;20385;-65
2022/09/22 09:36:28;;;;;;;14.63;10.07;;;;;;;16.05;65.33;102353.47;4987136;28;20026;-65
2022/09/22 09:38:55;;;;;;;11.98;10.00;;;;;;;16.07;64.11;102346.59;4984368;28;20034;-65
2022/09/22 09:41:28;;;;;;;13.30;9.32;;;;;;;16.14;64.62;102352.88;4986555;28;20034;-65
2022/09/22 09:43:55;;;;;;;12.82;8.77;;;;;;;16.33;62.88;102351.69;4986432;28;20041;-65
2022/09/22 09:46:26;;;;;;;14.05;9.50;;;;;;;16.31;64.04;102348.16;4986811;28;20022;-65
2022/09/22 09:49:13;;;;;;;10.57;8.50;;;;;;;16.37;63.65;102350.91;4984624;28;20074;-65
2022/09/22 09:51:42;;;;;;;9.85;7.32;;;;;;;16.44;61.87;102350.28;4982699;28;20030;-65
2022/09/22 09:54:11;;;;;;;9.60;7.25;;;;;;;16.48;62.09;102346.91;4985842;28;20400;-65
2022/09/22 09:57:01;;;;;;;9.85;6.88;;;;;;;16.60;62.11;102339.44;4984770;28;20030;-65
2022/09/22 10:02:19;;;;;;;7.75;6.60;;;;;;;16.70;60.46;102338.00;4986217;28;20096;-65
2022/09/22 10:04:51;;;;;;;6.75;6.00;;;;;;;16.84;61.41;102346.16;4983944;28;20026;-65
2022/09/22 10:07:26;;;;;;;9.05;6.97;;;;;;;16.88;60.62;102337.63;4986237;28;20030;-65
2022/09/22 10:09:54;;;;;;;8.73;6.93;;;;;;;16.95;58.28;102339.53;4982614;28;20045;-65
2022/09/22 10:12:29;;;;;;;10.57;6.40;;;;;;;17.05;59.72;102340.66;4987027;28;20030;-65
2022/09/22 10:15:00;;;;;;;8.77;5.40;;;;;;;17.13;59.39;102329.59;4985212;28;20034;-65
2022/09/22 10:17:40;;;;;;;8.85;6.22;;;;;;;17.22;57.83;102322.84;4985658;28;20031;-65
2022/09/22 10:20:25;;;;;;;10.00;5.93;;;;;;;17.33;59.19;102335.25;4986026;28;20034;-66
2022/09/22 10:22:54;;;;;;;9.63;5.93;;;;;;;17.33;58.90;102331.78;4983854;28;20122;-67
2022/09/22 10:25:30;;;;;;;;;;;;;;;17.47;58.62;102324.28;4986068;28;20030;-67
2022/09/22 10:28:01;;;;;;;7.88;5.45;;;;;;;17.54;57.83;102323.59;4988755;28;19921;-66
2022/09/22 10:30:31;;;;;;;10.52;6.07;;;;;;;17.65;56.47;102320.41;4984872;28;20486;-64
2022/09/22 10:33:20;;;;;;;9.10;6.20;;;;;;;17.75;57.89;102315.41;4984699;28;20451;-64
2022/09/22 10:35:54;;;;;;;6.15;4.35;;;;;;;17.98;56.35;102319.38;4983708;28;20042;-64
2022/09/22 10:38:22;;;;;;;7.13;4.18;;;;;;;18.12;53.79;102314.47;4984849;28;20026;-64
2022/09/22 10:41:12;;;;;;;11.15;3.50;;;;;;;18.32;55.52;102307.03;4982722;28;20037;-64
2022/09/22 10:44:01;;;;;;;4.55;2.90;;;;;;;18.48;53.03;102306.47;4977722;28;20098;-64
2022/09/22 10:47:04;;;;;;;5.07;2.85;;;;;;;18.70;54.03;102303.44;4984707;28;20071;-64
2022/09/22 10:49:44;;;;;;;7.43;2.80;;;;;;;18.92;50.86;102295.97;4983813;28;20400;-64
2022/09/22 10:52:34;;;;;;;4.00;2.80;;;;;;;19.16;52.22;102295.50;4984181;28;20063;-65
2022/09/22 10:55:41;;;;;;;2.90;2.22;;;;;;;19.37;51.77;102293.22;4985502;28;20038;-66
2022/09/22 10:58:26;;;;;;;2.35;1.70;;;;;;;19.63;50.10;102295.34;4969656;28;20045;-66
2022/09/22 11:01:05;;;;;;;6.13;1.90;;;;;;;19.83;48.70;102299.06;4988195;28;20555;-67
2022/09/22 11:03:49;;;;;;;2.67;1.40;;;;;;;20.01;47.88;102287.97;4988359;28;20042;-67
2022/09/22 11:12:33;;;;;;;3.92;2.00;;;;;;;20.81;46.22;102279.22;4986791;28;20552;-66
2022/09/22 11:15:17;;;;;;;4.10;1.80;;;;;;;21.08;46.39;102283.81;4987825;28;20038;-66
2022/09/22 11:17:45;;;;;;;3.20;1.70;;;;;;;21.33;44.00;102277.91;4984949;28;20026;-66
2022/09/22 11:20:13;;;;;;;1.95;1.38;;;;;;;21.45;44.25;102279.72;4987968;28;20084;-66
2022/09/22 11:23:16;;;;;;;4.90;1.57;;;;;;;21.80;44.35;102279.91;4988725;28;20041;-66
2022/09/22 11:26:15;;;;;;;4.80;1.77;;;;;;;21.98;43.62;102276.47;4988747;28;20041;-66
2022/09/22 11:29:06;;;;;;;2.60;1.30;;;;;;;22.16;43.33;102275.69;4986987;28;20033;-66
2022/09/22 11:32:09;;;;;;;3.33;1.50;;;;;;;22.32;42.28;102277.44;4989928;28;20492;-66
2022/09/22 11:34:52;;;;;;;5.05;1.50;;;;;;;22.41;41.27;102274.88;4987490;28;20448;-66
2022/09/22 11:37:32;;;;;;;4.97;1.85;;;;;;;22.52;38.78;102263.53;4989282;28;20030;-66
2022/09/22 11:40:34;;;;;;;2.90;1.75;;;;;;;22.81;40.87;102266.13;4986913;28;20057;-66
2022/09/22 11:43:02;;;;;;;2.65;1.85;;;;;;;22.84;39.42;102264.41;4987401;28;20036;-66
2022/09/22 11:45:30;;;;;;;2.70;1.65;;;;;;;22.83;39.44;102264.41;4987147;28;20030;-66
2022/09/22 11:48:14;;;;;;;2.47;1.70;;;;;;;22.63;40.19;102253.88;4987829;28;20486;-66